Billings Logan International Airport
KBIL : now visible

Airfield :











YOU CAN JOIN US ON...

 
LOGIN :

Register | Disclaimer

   EN    FR    IT 

 









Legend :    VFR   Marginal VFR   IFR   Intensive IFR   Very Intensive IFR
Visi :
Ceiling :
>= 8 km
>= 3000ft
5 to 8 km
1000 to 3000 ft
1500m to 5 km
500 to 1000 ft
800 to 1500m
200 to 500 ft
< 800m
< 200 ft
Symbols :   Thunderstorms  Fog  Heavy snow  Heavy precipitations  Wind > 20 kt







- Airport Elevation : 3652 ft
- IATA code : BIL


KBIL - Billings Logan International

CURRENT METAR :
  • 270715Z 34009KT 10SM OVC008 12/09 A2996 RMK AO2 LTG DSNT NE AND E RAE0654 CIG 007V011 CB DSNT NE-E P0000 T01170094 $

EXPIRED METARs :
  • 270701Z 01012KT 10SM BKN010 BKN019 OVC085 12/09 A2996 RMK AO2 RAE0654 CIG 009V015 P0000 T01170089 $
  • 270653Z 01012KT 10SM -RA SCT012 BKN019 OVC095 12/09 A2996 RMK AO2 RAB04 SLP129 P0000 T01170089 402280100 $
  • 270553Z 36013KT 10SM BKN034 OVC110 12/08 A2994 RMK AO2 LTG DSNT NE-SE RAE13 PRESRR SLP122 CB DSNT NE-SE P0000 60003 T01220083 10200 20117 51026 $
  • 270521Z 01016KT 10SM SCT025 SCT034 OVC110 12/08 A2991 RMK AO2 LTG DSNT ALQDS RAE13 CB DSNT ALQDS P0000 T01170083 $
  • 270453Z 01016G26KT 10SM -RA BKN021 OVC055 12/08 A2991 RMK AO2 PK WND 34030/0402 WSHFT 0349 LTG DSNT ALQDS TSE49 SLP111 CB DSNT ALQDS P0000 T01220083 $

TAF KBIL
Valid from the 27 at 07:00 until the 28 at 06:00 UTC


270708Z 2707/2806 01012KT P6SM VCSH BKN010 BKN019 OVC090
FM271000 06015G22KT 5SM -RA BR SCT007 BKN015
FM271400 02011KT 6SM -RA BR SCT005 BKN020 OVC040
FM271900 06016KT 6SM -RA BR OVC012
KZLC FIR / North America



MET'MAP, your aeronautical weather chart ! - Copyright ORBIFLY December 2007 - Disclaimer

ORBIFLY MET'MAP TEAM :

Programming & Development : Alexandra Zaïnal
Concept & Development : Baudouin d'Aumeries
Co-Development & Prog : Marc-Olivier Méhu
Technical & hardware support : Manuel Goepfert

Contact : metmap@orbifly.com




SOURCES & CREDITS :

   NOAA       Earth
Advisory